Time;durP1;ratioP1;P1;durP2;ratioP2;P2;SDS_P1;SDS_P2;PMS_P1;PMS_P2;Temp;Humidity;BMP_temperature;BMP_pressure;BME280_temperature;BME280_humidity;BME280_pressure;Samples;Min_cycle;Max_cycle;Signal;HPM_P1;HPM_P2
2021/09/24 00:02:13;;;;;;;;;20.25;20.25;;;;;;;;4998629;28;51174;-62
2021/09/24 00:04:38;;;;;;;;;16.50;16.50;;;;;;;;5010012;28;52028;-61
2021/09/24 00:07:04;;;;;;;;;20.00;19.00;;;;;;;;5005130;28;51734;-62
2021/09/24 00:09:29;;;;;;;;;23.50;23.25;;;;;;;;5001976;28;51064;-61
2021/09/24 00:11:55;;;;;;;;;25.25;24.50;;;;;;;;4993980;28;51939;-61
2021/09/24 00:14:20;;;;;;;;;27.00;26.00;;;;;;;;4997408;28;51097;-61
2021/09/24 00:16:45;;;;;;;;;23.00;22.25;;;;;;;;4996897;28;52307;-61
2021/09/24 00:19:10;;;;;;;;;22.75;21.50;;;;;;;;5003902;28;51021;-61
2021/09/24 00:21:36;;;;;;;;;24.00;23.75;;;;;;;;4995582;28;51357;-60
2021/09/24 00:24:01;;;;;;;;;19.75;19.75;;;;;;;;5002608;28;50958;-60
2021/09/24 00:26:27;;;;;;;;;24.50;23.00;;;;;;;;4994213;28;51891;-60
2021/09/24 00:28:52;;;;;;;;;22.25;21.75;;;;;;;;5003828;28;50923;-60
2021/09/24 00:31:17;;;;;;;;;22.00;21.25;;;;;;;;4994114;28;50952;-60
2021/09/24 00:33:43;;;;;;;;;24.00;22.00;;;;;;;;5001657;28;51067;-61
2021/09/24 00:36:08;;;;;;;;;21.25;21.25;;;;;;;;4993580;28;51663;-60
2021/09/24 00:38:38;;;;;;;;;20.25;19.75;;;;;;;;5006252;28;51884;-60
2021/09/24 00:41:03;;;;;;;;;24.50;22.50;;;;;;;;4999817;28;51066;-60
2021/09/24 00:43:28;;;;;;;;;23.50;22.75;;;;;;;;4994394;28;51180;-61
2021/09/24 00:45:53;;;;;;;;;21.00;20.00;;;;;;;;4993646;28;52152;-65
2021/09/24 00:48:18;;;;;;;;;25.25;22.25;;;;;;;;4999302;28;51019;-61
2021/09/24 00:50:44;;;;;;;;;22.75;21.75;;;;;;;;4994053;28;51306;-61
2021/09/24 00:53:10;;;;;;;;;23.75;21.00;;;;;;;;5008557;28;51423;-61
2021/09/24 00:55:35;;;;;;;;;25.25;22.25;;;;;;;;5004188;28;51929;-61
2021/09/24 00:58:01;;;;;;;;;18.75;17.50;;;;;;;;4993656;28;51177;-61
2021/09/24 01:00:26;;;;;;;;;20.50;19.50;;;;;;;;5002521;28;51314;-60
2021/09/24 01:02:51;;;;;;;;;21.75;20.25;;;;;;;;5010415;28;51115;-61
2021/09/24 01:05:16;;;;;;;;;20.50;19.00;;;;;;;;5007194;28;51946;-60
2021/09/24 01:07:43;;;;;;;;;16.50;15.75;;;;;;;;5007815;28;51421;-60
2021/09/24 01:10:09;;;;;;;;;20.25;19.50;;;;;;;;4993643;28;51137;-60
2021/09/24 01:12:34;;;;;;;;;22.50;22.00;;;;;;;;4977245;28;51046;-61
2021/09/24 01:15:00;;;;;;;;;20.75;20.00;;;;;;;;5005254;28;51094;-61
2021/09/24 01:17:26;;;;;;;;;18.50;18.50;;;;;;;;5005255;28;51107;-61
2021/09/24 01:19:51;;;;;;;;;16.50;16.50;;;;;;;;4993471;28;50916;-60
2021/09/24 01:22:17;;;;;;;;;16.00;15.00;;;;;;;;5003281;28;50899;-61
2021/09/24 01:24:42;;;;;;;;;20.00;19.00;;;;;;;;5012930;28;51171;-61
2021/09/24 01:27:07;;;;;;;;;21.00;19.25;;;;;;;;5010461;28;51224;-61
2021/09/24 01:29:32;;;;;;;;;16.75;16.75;;;;;;;;4997645;28;51190;-62
2021/09/24 01:31:57;;;;;;;;;17.00;16.00;;;;;;;;4993639;28;51053;-61
2021/09/24 01:34:23;;;;;;;;;19.00;19.00;;;;;;;;4993154;28;51925;-61
2021/09/24 01:36:48;;;;;;;;;15.25;15.25;;;;;;;;4999164;28;51200;-62
2021/09/24 01:39:14;;;;;;;;;15.00;13.00;;;;;;;;5001211;28;51046;-61
2021/09/24 01:41:40;;;;;;;;;10.00;10.00;;;;;;;;4999625;28;51183;-61
2021/09/24 01:44:05;;;;;;;;;12.00;11.67;;;;;;;;4993046;28;51029;-61
2021/09/24 01:46:31;;;;;;;;;9.33;9.33;;;;;;;;4993109;28;50994;-61
2021/09/24 01:48:56;;;;;;;;;11.00;10.00;;;;;;;;4998148;28;51061;-61
2021/09/24 01:51:21;;;;;;;;;12.00;11.00;;;;;;;;4993012;28;51071;-61
2021/09/24 01:53:48;;;;;;;;;13.00;12.00;;;;;;;;4992896;28;51055;-61
2021/09/24 01:56:13;;;;;;;;;12.50;11.00;;;;;;;;4993055;28;50879;-61
2021/09/24 01:58:38;;;;;;;;;10.67;10.00;;;;;;;;4995276;28;51105;-62
2021/09/24 02:01:04;;;;;;;;;11.50;11.50;;;;;;;;5004374;28;51068;-60
2021/09/24 02:03:29;;;;;;;;;12.50;11.75;;;;;;;;4992809;28;51010;-61
2021/09/24 02:05:54;;;;;;;;;9.00;9.00;;;;;;;;5002885;28;51091;-61
2021/09/24 02:08:22;;;;;;;;;11.00;10.33;;;;;;;;5008448;28;51092;-61
2021/09/24 02:10:47;;;;;;;;;10.33;9.00;;;;;;;;4995693;28;50981;-61
2021/09/24 02:13:12;;;;;;;;;8.00;8.00;;;;;;;;4999288;28;51946;-61
2021/09/24 02:15:38;;;;;;;;;8.00;8.00;;;;;;;;5000561;28;50871;-61
2021/09/24 02:18:04;;;;;;;;;6.25;6.25;;;;;;;;5003592;28;51071;-61
2021/09/24 02:20:29;;;;;;;;;8.00;7.67;;;;;;;;4995651;28;51108;-61
2021/09/24 02:22:54;;;;;;;;;7.33;6.33;;;;;;;;4993820;28;51907;-60
2021/09/24 02:25:19;;;;;;;;;11.00;9.67;;;;;;;;4995924;28;50912;-61
2021/09/24 02:27:44;;;;;;;;;9.50;9.50;;;;;;;;5000755;28;50943;-60
2021/09/24 02:30:10;;;;;;;;;10.00;10.00;;;;;;;;4996055;28;51089;-60
2021/09/24 02:32:35;;;;;;;;;9.33;8.67;;;;;;;;4991821;28;51931;-60
2021/09/24 02:35:00;;;;;;;;;10.25;10.00;;;;;;;;4994863;28;51043;-60
2021/09/24 02:37:26;;;;;;;;;13.75;11.00;;;;;;;;5004393;28;51163;-60
2021/09/24 02:39:51;;;;;;;;;15.50;15.50;;;;;;;;5015561;28;51024;-61
2021/09/24 02:42:16;;;;;;;;;11.33;10.33;;;;;;;;5011064;28;51746;-61
2021/09/24 02:44:42;;;;;;;;;10.00;10.00;;;;;;;;5002578;28;51065;-60
2021/09/24 02:47:08;;;;;;;;;9.00;9.00;;;;;;;;4995791;28;51080;-61
2021/09/24 02:49:34;;;;;;;;;11.33;11.00;;;;;;;;4994953;28;51265;-61
2021/09/24 02:51:59;;;;;;;;;10.00;10.00;;;;;;;;4997131;28;51102;-61
2021/09/24 02:54:24;;;;;;;;;12.67;11.33;;;;;;;;5014543;28;51028;-61
2021/09/24 02:56:50;;;;;;;;;12.00;11.67;;;;;;;;4998963;28;51341;-60
2021/09/24 02:59:15;;;;;;;;;10.33;9.67;;;;;;;;4996342;28;50772;-60
2021/09/24 03:01:40;;;;;;;;;10.67;9.33;;;;;;;;4995888;28;51104;-60
2021/09/24 03:04:05;;;;;;;;;8.00;8.00;;;;;;;;4996532;28;50977;-60
2021/09/24 03:06:31;;;;;;;;;8.00;8.00;;;;;;;;5010315;28;51272;-60
2021/09/24 03:08:56;;;;;;;;;7.75;7.75;;;;;;;;5013910;28;51150;-60
2021/09/24 03:11:21;;;;;;;;;9.75;8.75;;;;;;;;4998532;28;52785;-61
2021/09/24 03:13:46;;;;;;;;;8.00;6.67;;;;;;;;4997281;28;51055;-60
2021/09/24 03:16:12;;;;;;;;;6.33;6.33;;;;;;;;5004913;28;51147;-61
2021/09/24 03:18:37;;;;;;;;;8.00;6.33;;;;;;;;5011310;28;51162;-61
2021/09/24 03:21:02;;;;;;;;;7.00;6.00;;;;;;;;5011595;28;51864;-60
2021/09/24 03:23:28;;;;;;;;;8.33;7.33;;;;;;;;4977870;28;50906;-60
2021/09/24 03:25:53;;;;;;;;;7.00;7.00;;;;;;;;4995329;28;51176;-60
2021/09/24 03:28:18;;;;;;;;;9.00;8.00;;;;;;;;5009801;28;51314;-60
2021/09/24 03:30:44;;;;;;;;;6.00;6.00;;;;;;;;5012167;28;51483;-61
2021/09/24 03:33:09;;;;;;;;;7.67;7.00;;;;;;;;4995022;28;50954;-61
2021/09/24 03:35:34;;;;;;;;;7.67;7.67;;;;;;;;5004672;28;50909;-61
2021/09/24 03:38:00;;;;;;;;;9.00;8.00;;;;;;;;4998638;28;51316;-61
2021/09/24 03:40:25;;;;;;;;;10.50;9.75;;;;;;;;5013158;28;51138;-62
2021/09/24 03:42:50;;;;;;;;;5.00;5.00;;;;;;;;5014204;28;51180;-61
2021/09/24 03:45:15;;;;;;;;;6.00;5.67;;;;;;;;4985265;28;51053;-60
2021/09/24 03:47:41;;;;;;;;;5.67;5.67;;;;;;;;4994824;28;51072;-61
2021/09/24 03:50:07;;;;;;;;;7.00;6.33;;;;;;;;4998378;28;52850;-61
2021/09/24 03:52:32;;;;;;;;;7.00;6.00;;;;;;;;4994216;28;50908;-61
2021/09/24 03:54:57;;;;;;;;;7.67;6.33;;;;;;;;5001357;28;51113;-61
2021/09/24 03:57:23;;;;;;;;;7.00;6.33;;;;;;;;4996713;28;52505;-60
2021/09/24 03:59:48;;;;;;;;;7.33;6.67;;;;;;;;4995675;28;51000;-61
2021/09/24 04:02:13;;;;;;;;;8.33;8.00;;;;;;;;4994563;28;51020;-60
2021/09/24 04:04:38;;;;;;;;;7.67;7.67;;;;;;;;4994698;28;51209;-60
2021/09/24 04:07:05;;;;;;;;;9.25;8.75;;;;;;;;5004775;28;51406;-61
2021/09/24 04:09:30;;;;;;;;;7.00;7.00;;;;;;;;5010485;28;51068;-61
2021/09/24 04:11:56;;;;;;;;;5.67;5.33;;;;;;;;4994693;28;50856;-60
2021/09/24 04:14:21;;;;;;;;;7.00;6.00;;;;;;;;5002970;28;51057;-60
2021/09/24 04:16:46;;;;;;;;;6.00;6.00;;;;;;;;4998394;28;51125;-60
2021/09/24 04:19:11;;;;;;;;;8.00;6.67;;;;;;;;5007004;28;51854;-61
2021/09/24 04:21:36;;;;;;;;;6.33;6.33;;;;;;;;4994196;28;51096;-61
2021/09/24 04:24:02;;;;;;;;;6.67;5.67;;;;;;;;5007794;28;51054;-62
2021/09/24 04:26:27;;;;;;;;;4.67;4.67;;;;;;;;4993661;28;51213;-60
2021/09/24 04:28:52;;;;;;;;;7.00;7.00;;;;;;;;4995289;28;51727;-61
2021/09/24 04:31:18;;;;;;;;;12.50;11.75;;;;;;;;4994888;28;51017;-60
2021/09/24 04:33:43;;;;;;;;;7.00;7.00;;;;;;;;4997397;28;51106;-60
2021/09/24 04:36:08;;;;;;;;;5.00;4.00;;;;;;;;4994281;28;51097;-61
2021/09/24 04:38:33;;;;;;;;;6.00;6.00;;;;;;;;5007417;28;51093;-61
2021/09/24 04:40:59;;;;;;;;;5.67;5.67;;;;;;;;5000391;28;51248;-61
2021/09/24 04:43:24;;;;;;;;;7.00;7.00;;;;;;;;4994150;28;51201;-61
2021/09/24 04:45:49;;;;;;;;;6.33;6.00;;;;;;;;4997101;28;51240;-61
2021/09/24 04:48:14;;;;;;;;;8.00;6.67;;;;;;;;5005948;28;51089;-61
2021/09/24 04:50:39;;;;;;;;;7.50;7.00;;;;;;;;4993609;28;51158;-61
2021/09/24 04:53:05;;;;;;;;;6.00;6.00;;;;;;;;4994103;28;51045;-61
2021/09/24 04:55:30;;;;;;;;;7.00;7.00;;;;;;;;5002704;28;51089;-61
2021/09/24 04:57:55;;;;;;;;;19.50;16.00;;;;;;;;4998462;28;52093;-61
2021/09/24 05:00:21;;;;;;;;;6.67;6.00;;;;;;;;4993795;28;50976;-61
2021/09/24 05:02:46;;;;;;;;;6.00;5.33;;;;;;;;4994661;28;50908;-61
2021/09/24 05:05:11;;;;;;;;;8.67;8.67;;;;;;;;5001707;28;51006;-61
2021/09/24 05:07:37;;;;;;;;;6.33;6.00;;;;;;;;5002613;28;51403;-62
2021/09/24 05:10:03;;;;;;;;;5.33;5.33;;;;;;;;5011187;28;51179;-62
2021/09/24 05:12:28;;;;;;;;;6.33;6.00;;;;;;;;5010427;28;51096;-61
2021/09/24 05:14:53;;;;;;;;;6.67;6.67;;;;;;;;4995118;28;51200;-61
2021/09/24 05:17:18;;;;;;;;;8.33;6.00;;;;;;;;4994680;28;51707;-61
2021/09/24 05:19:43;;;;;;;;;6.67;6.00;;;;;;;;4993256;28;50964;-61
2021/09/24 05:22:09;;;;;;;;;8.00;7.00;;;;;;;;4993142;28;51160;-62
2021/09/24 05:24:34;;;;;;;;;5.00;5.00;;;;;;;;4993579;28;51333;-61
2021/09/24 05:27:00;;;;;;;;;8.33;7.33;;;;;;;;4995936;28;50893;-62
2021/09/24 05:29:25;;;;;;;;;7.33;7.00;;;;;;;;5008761;28;51002;-61
2021/09/24 05:31:51;;;;;;;;;7.00;7.00;;;;;;;;5006929;28;51080;-61
2021/09/24 05:34:16;;;;;;;;;6.75;6.00;;;;;;;;5003021;28;51134;-62
2021/09/24 05:36:41;;;;;;;;;8.00;8.00;;;;;;;;5000828;28;52084;-62
2021/09/24 05:39:06;;;;;;;;;7.33;6.00;;;;;;;;4994953;28;50823;-61
2021/09/24 05:41:32;;;;;;;;;6.00;5.67;;;;;;;;4992803;28;50789;-61
2021/09/24 05:43:57;;;;;;;;;4.33;3.00;;;;;;;;4991988;28;51309;-61
2021/09/24 05:46:22;;;;;;;;;9.00;9.00;;;;;;;;5000934;28;51753;-61
2021/09/24 05:48:48;;;;;;;;;9.00;9.00;;;;;;;;4997168;28;51312;-61
2021/09/24 05:51:13;;;;;;;;;7.00;7.00;;;;;;;;4992444;28;51137;-61
2021/09/24 05:53:38;;;;;;;;;9.67;8.67;;;;;;;;4992854;28;51181;-61
2021/09/24 05:56:05;;;;;;;;;8.00;8.00;;;;;;;;4992720;28;52987;-61
2021/09/24 05:58:30;;;;;;;;;8.00;8.00;;;;;;;;4992989;28;51090;-61
2021/09/24 06:00:56;;;;;;;;;9.67;8.67;;;;;;;;4991692;28;51261;-60
2021/09/24 06:03:21;;;;;;;;;10.00;9.00;;;;;;;;4992932;28;50905;-61
2021/09/24 06:05:46;;;;;;;;;6.33;5.67;;;;;;;;4992501;28;51090;-60
2021/09/24 06:08:12;;;;;;;;;8.00;8.00;;;;;;;;4994286;28;51796;-60
2021/09/24 06:10:40;;;;;;;;;9.00;7.00;;;;;;;;5005651;28;51182;-61
2021/09/24 06:13:06;;;;;;;;;11.00;10.00;;;;;;;;4995663;28;50825;-59
2021/09/24 06:15:31;;;;;;;;;10.00;10.00;;;;;;;;5014003;28;51197;-61
2021/09/24 06:17:56;;;;;;;;;11.33;11.33;;;;;;;;5002198;28;51022;-61
2021/09/24 06:20:22;;;;;;;;;11.00;10.75;;;;;;;;4998316;28;51082;-61
2021/09/24 06:22:47;;;;;;;;;11.00;10.00;;;;;;;;5009926;28;51319;-60
2021/09/24 06:25:13;;;;;;;;;11.33;10.67;;;;;;;;4995578;28;52806;-60
2021/09/24 06:27:38;;;;;;;;;10.00;10.00;;;;;;;;5001088;28;51170;-61
2021/09/24 06:30:08;;;;;;;;;11.00;10.50;;;;;;;;5013740;28;50980;-61
2021/09/24 06:32:33;;;;;;;;;13.00;12.50;;;;;;;;5007768;28;50854;-60
2021/09/24 06:34:59;;;;;;;;;12.00;11.50;;;;;;;;4998192;28;51972;-60
2021/09/24 06:37:24;;;;;;;;;9.67;9.67;;;;;;;;5011122;28;50793;-60
2021/09/24 06:39:49;;;;;;;;;11.50;11.00;;;;;;;;5006876;28;51315;-60
2021/09/24 06:42:15;;;;;;;;;12.50;11.50;;;;;;;;4995829;28;51158;-60
2021/09/24 06:44:41;;;;;;;;;11.67;11.00;;;;;;;;5002526;28;51097;-60
2021/09/24 06:47:06;;;;;;;;;13.25;13.00;;;;;;;;5006400;28;51133;-60
2021/09/24 06:49:32;;;;;;;;;15.00;14.50;;;;;;;;4998644;28;52106;-60
2021/09/24 06:51:58;;;;;;;;;16.75;15.00;;;;;;;;5003572;28;50900;-59
2021/09/24 06:54:24;;;;;;;;;15.25;13.75;;;;;;;;5002569;28;51200;-61
2021/09/24 06:56:49;;;;;;;;;16.25;15.50;;;;;;;;5010067;28;51125;-61
2021/09/24 06:59:14;;;;;;;;;18.25;14.75;;;;;;;;5007255;28;51123;-60
2021/09/24 07:01:41;;;;;;;;;16.75;14.25;;;;;;;;5006978;28;51314;-61
2021/09/24 07:04:07;;;;;;;;;17.25;16.75;;;;;;;;5003677;28;52137;-61
2021/09/24 07:06:32;;;;;;;;;19.00;16.00;;;;;;;;4993812;28;51242;-60
2021/09/24 07:08:57;;;;;;;;;15.25;15.25;;;;;;;;4999476;28;51101;-61
2021/09/24 07:11:24;;;;;;;;;24.00;19.75;;;;;;;;5003968;28;51061;-60
2021/09/24 07:13:49;;;;;;;;;20.50;19.00;;;;;;;;5004897;28;51890;-60
2021/09/24 07:16:14;;;;;;;;;16.00;15.00;;;;;;;;5008072;28;51114;-61
2021/09/24 07:18:39;;;;;;;;;18.25;16.25;;;;;;;;4998633;28;51218;-60
2021/09/24 07:21:05;;;;;;;;;16.75;15.00;;;;;;;;5011950;28;50927;-61
2021/09/24 07:23:30;;;;;;;;;17.00;17.00;;;;;;;;5011951;28;51051;-60
2021/09/24 07:25:55;;;;;;;;;17.75;17.50;;;;;;;;5011824;28;51233;-61
2021/09/24 07:28:20;;;;;;;;;16.00;15.25;;;;;;;;5011993;28;51087;-60
2021/09/24 07:30:46;;;;;;;;;21.25;19.75;;;;;;;;5001231;28;51074;-61
2021/09/24 07:33:11;;;;;;;;;18.25;17.50;;;;;;;;4991995;28;52194;-61
2021/09/24 07:35:36;;;;;;;;;20.25;19.25;;;;;;;;4994106;28;50802;-60
2021/09/24 07:38:02;;;;;;;;;20.50;20.50;;;;;;;;5001184;28;50816;-62
2021/09/24 07:40:28;;;;;;;;;21.00;18.75;;;;;;;;4994784;28;51235;-61
2021/09/24 07:42:53;;;;;;;;;23.00;22.00;;;;;;;;4994209;28;51943;-61
2021/09/24 07:45:18;;;;;;;;;22.75;21.25;;;;;;;;5011284;28;51189;-61
2021/09/24 07:47:44;;;;;;;;;23.25;22.25;;;;;;;;5012944;28;51125;-61
2021/09/24 07:50:09;;;;;;;;;22.25;21.00;;;;;;;;5014063;28;51374;-60
2021/09/24 07:52:34;;;;;;;;;25.50;24.75;;;;;;;;5013569;28;51892;-60
2021/09/24 07:55:00;;;;;;;;;25.25;23.75;;;;;;;;5014102;28;51292;-60
2021/09/24 07:57:25;;;;;;;;;43.50;36.50;;;;;;;;5012565;28;51101;-61
2021/09/24 07:59:50;;;;;;;;;50.50;42.00;;;;;;;;5003484;28;51173;-61
2021/09/24 08:02:16;;;;;;;;;56.00;46.25;;;;;;;;5013924;28;51160;-61
2021/09/24 08:04:41;;;;;;;;;70.00;56.00;;;;;;;;5010292;28;51041;-61
2021/09/24 08:07:07;;;;;;;;;59.00;46.75;;;;;;;;5002274;28;51126;-60
2021/09/24 08:09:32;;;;;;;;;92.00;86.67;;;;;;;;5011818;28;50860;-61
2021/09/24 08:11:57;;;;;;;;;86.33;82.67;;;;;;;;5013900;28;51964;-61
2021/09/24 08:14:23;;;;;;;;;84.33;79.33;;;;;;;;4997445;28;51028;-61
2021/09/24 08:16:48;;;;;;;;;67.25;53.25;;;;;;;;5007836;28;50982;-61
2021/09/24 08:19:13;;;;;;;;;57.25;46.00;;;;;;;;4998716;28;51200;-62
2021/09/24 08:21:38;;;;;;;;;37.25;33.00;;;;;;;;4993829;28;51138;-61
2021/09/24 08:24:04;;;;;;;;;49.25;39.50;;;;;;;;4993409;28;50896;-61
2021/09/24 08:26:30;;;;;;;;;41.00;35.25;;;;;;;;4994124;28;50893;-61
2021/09/24 08:28:55;;;;;;;;;29.50;28.75;;;;;;;;5006828;28;51054;-61
2021/09/24 08:31:20;;;;;;;;;26.75;25.75;;;;;;;;5013246;28;51753;-61
2021/09/24 08:33:47;;;;;;;;;24.67;23.67;;;;;;;;5013373;28;50992;-61
2021/09/24 08:36:12;;;;;;;;;26.25;24.00;;;;;;;;5012376;28;50943;-61
2021/09/24 08:38:37;;;;;;;;;23.67;22.33;;;;;;;;4997732;28;51161;-61
2021/09/24 08:41:03;;;;;;;;;20.00;20.00;;;;;;;;4993256;28;52154;-61
2021/09/24 08:43:28;;;;;;;;;21.67;20.33;;;;;;;;4992632;28;51022;-62
2021/09/24 08:45:54;;;;;;;;;22.75;22.25;;;;;;;;4993896;28;50856;-61
2021/09/24 08:48:20;;;;;;;;;20.25;19.25;;;;;;;;4994397;28;51054;-61
2021/09/24 08:50:45;;;;;;;;;23.33;21.67;;;;;;;;4992765;28;52653;-61
2021/09/24 08:53:12;;;;;;;;;20.67;18.33;;;;;;;;4993529;28;50962;-60
2021/09/24 08:55:38;;;;;;;;;23.00;22.25;;;;;;;;4993323;28;50990;-61
2021/09/24 08:58:03;;;;;;;;;17.00;17.00;;;;;;;;4996196;28;51087;-61
2021/09/24 09:00:29;;;;;;;;;25.00;23.00;;;;;;;;5006392;28;51580;-61
2021/09/24 09:02:56;;;;;;;;;18.33;16.67;;;;;;;;4993377;28;51007;-61
2021/09/24 09:05:21;;;;;;;;;21.00;20.00;;;;;;;;4992940;28;50943;-60
2021/09/24 09:07:47;;;;;;;;;20.00;19.00;;;;;;;;4992069;28;51001;-61
2021/09/24 09:10:13;;;;;;;;;20.33;19.67;;;;;;;;4992651;28;52882;-61
2021/09/24 09:12:38;;;;;;;;;19.67;18.67;;;;;;;;4995021;28;50983;-60
2021/09/24 09:15:03;;;;;;;;;22.00;21.33;;;;;;;;4993932;28;51029;-63
2021/09/24 09:17:33;;;;;;;;;21.33;19.67;;;;;;;;4994150;28;51455;-61
2021/09/24 09:20:15;;;;;;;;;20.67;18.33;;;;;;;;4992616;28;51280;-60
2021/09/24 09:22:41;;;;;;;;;25.00;23.67;;;;;;;;4999791;28;52658;-60
2021/09/24 09:25:27;;;;;;;;;21.33;20.33;;;;;;;;5010367;28;51207;-61
2021/09/24 09:27:53;;;;;;;;;22.00;18.00;;;;;;;;5006719;28;51307;-61
2021/09/24 09:30:19;;;;;;;;;20.33;18.67;;;;;;;;4992434;28;51920;-61
2021/09/24 09:33:00;;;;;;;;;20.33;19.00;;;;;;;;4992051;28;51000;-61
2021/09/24 09:35:26;;;;;;;;;21.00;18.00;;;;;;;;5009488;28;51027;-61
2021/09/24 09:37:51;;;;;;;;;20.33;19.67;;;;;;;;5002730;28;51002;-60
2021/09/24 09:40:20;;;;;;;;;21.33;21.00;;;;;;;;4992273;28;51998;-60
2021/09/24 09:42:46;;;;;;;;;18.00;16.00;;;;;;;;4992606;28;50882;-60
2021/09/24 09:45:13;;;;;;;;;19.67;18.67;;;;;;;;4992160;28;50899;-60
2021/09/24 09:47:39;;;;;;;;;22.00;18.00;;;;;;;;4992823;28;51116;-61
2021/09/24 09:50:20;;;;;;;;;16.67;15.67;;;;;;;;5003027;28;51990;-61
2021/09/24 09:53:03;;;;;;;;;20.67;18.00;;;;;;;;4999911;28;50973;-61
2021/09/24 09:55:39;;;;;;;;;20.00;19.67;;;;;;;;4998499;28;51325;-61
2021/09/24 09:58:09;;;;;;;;;18.67;18.00;;;;;;;;4992471;28;50900;-61
2021/09/24 10:00:35;;;;;;;;;17.00;16.00;;;;;;;;4992127;28;51084;-61
2021/09/24 10:03:05;;;;;;;;;18.33;18.00;;;;;;;;4992134;28;50999;-60
2021/09/24 10:05:32;;;;;;;;;16.33;16.33;;;;;;;;4992275;28;50863;-62
2021/09/24 10:07:57;;;;;;;;;17.00;16.33;;;;;;;;4992218;28;51034;-62
2021/09/24 10:10:22;;;;;;;;;18.67;17.00;;;;;;;;4991283;28;51127;-62
2021/09/24 10:12:48;;;;;;;;;16.33;15.67;;;;;;;;4995429;28;51046;-61
2021/09/24 10:15:17;;;;;;;;;21.00;18.33;;;;;;;;5005689;28;51221;-62
2021/09/24 10:17:43;;;;;;;;;17.33;16.33;;;;;;;;4998429;28;50903;-60
2021/09/24 10:20:09;;;;;;;;;19.33;19.00;;;;;;;;4991742;28;52896;-60
2021/09/24 10:22:35;;;;;;;;;18.00;16.67;;;;;;;;5000071;28;50991;-60
2021/09/24 10:25:00;;;;;;;;;15.33;15.00;;;;;;;;5000401;28;51240;-61
2021/09/24 10:27:31;;;;;;;;;12.00;11.67;;;;;;;;4992380;28;50970;-61
2021/09/24 10:30:04;;;;;;;;;20.67;18.67;;;;;;;;4991562;28;51078;-62
2021/09/24 10:32:29;;;;;;;;;17.33;16.00;;;;;;;;4992324;28;51097;-60
2021/09/24 10:35:01;;;;;;;;;18.00;16.33;;;;;;;;4992022;28;50995;-61
2021/09/24 10:37:27;;;;;;;;;16.33;15.33;;;;;;;;4997691;28;51020;-62
2021/09/24 10:39:59;;;;;;;;;20.00;19.00;;;;;;;;4995444;28;52158;-62
2021/09/24 10:42:33;;;;;;;;;20.33;19.00;;;;;;;;4991772;28;51127;-62
2021/09/24 10:44:59;;;;;;;;;18.67;17.00;;;;;;;;4991621;28;50868;-61
2021/09/24 10:47:42;;;;;;;;;20.33;18.33;;;;;;;;4992176;28;51091;-62
2021/09/24 10:50:28;;;;;;;;;19.00;17.67;;;;;;;;4991555;28;52041;-62
2021/09/24 10:53:16;;;;;;;;;16.00;13.33;;;;;;;;4992141;28;51306;-62
2021/09/24 10:55:41;;;;;;;;;15.67;15.00;;;;;;;;5003889;28;51078;-61
2021/09/24 10:58:07;;;;;;;;;17.33;15.33;;;;;;;;4991093;28;51316;-60
2021/09/24 11:00:33;;;;;;;;;13.67;11.00;;;;;;;;4992070;28;52985;-61
2021/09/24 11:03:08;;;;;;;;;13.33;12.67;;;;;;;;4994369;28;50998;-60
2021/09/24 11:05:52;;;;;;;;;16.33;16.33;;;;;;;;4999497;28;52770;-61
2021/09/24 11:08:36;;;;;;;;;15.67;14.67;;;;;;;;5002261;28;51048;-61
2021/09/24 11:11:11;;;;;;;;;14.00;14.00;;;;;;;;5001775;28;51877;-61
2021/09/24 11:13:42;;;;;;;;;12.67;12.00;;;;;;;;5004338;28;50887;-61
2021/09/24 11:16:08;;;;;;;;;12.00;11.67;;;;;;;;4997196;28;51099;-61
2021/09/24 11:18:43;;;;;;;;;14.67;13.33;;;;;;;;4995492;28;50885;-61
2021/09/24 11:21:08;;;;;;;;;13.00;12.67;;;;;;;;4993550;28;52360;-61
2021/09/24 11:23:35;;;;;;;;;19.00;16.33;;;;;;;;4997861;28;51047;-62
2021/09/24 11:26:19;;;;;;;;;16.67;16.67;;;;;;;;5014672;28;51176;-62
2021/09/24 11:28:45;;;;;;;;;14.00;12.33;;;;;;;;5014310;28;51947;-61
2021/09/24 11:31:11;;;;;;;;;11.00;10.33;;;;;;;;5013833;28;51072;-60
2021/09/24 11:33:45;;;;;;;;;15.67;15.67;;;;;;;;5014045;28;50822;-61
2021/09/24 11:36:10;;;;;;;;;14.00;14.00;;;;;;;;5004557;28;50917;-61
2021/09/24 11:38:35;;;;;;;;;12.33;12.33;;;;;;;;5006554;28;50972;-62
2021/09/24 11:41:01;;;;;;;;;14.00;13.00;;;;;;;;4993703;28;52397;-62
2021/09/24 11:43:26;;;;;;;;;14.67;14.00;;;;;;;;4993091;28;50876;-61
2021/09/24 11:45:51;;;;;;;;;19.25;18.75;;;;;;;;4994139;28;51054;-61
2021/09/24 11:48:25;;;;;;;;;13.67;13.67;;;;;;;;4993930;28;50769;-61
2021/09/24 11:50:51;;;;;;;;;14.00;13.67;;;;;;;;4993380;28;50923;-62
2021/09/24 11:53:16;;;;;;;;;14.00;13.67;;;;;;;;4993790;28;50884;-65
2021/09/24 11:55:45;;;;;;;;;15.00;14.00;;;;;;;;4994297;28;51134;-62
2021/09/24 11:58:13;;;;;;;;;14.33;13.67;;;;;;;;4994261;28;50940;-62
2021/09/24 12:00:40;;;;;;;;;14.67;14.67;;;;;;;;4993542;28;51574;-61
2021/09/24 12:03:09;;;;;;;;;12.00;11.67;;;;;;;;4993334;28;51117;-65
2021/09/24 12:05:35;;;;;;;;;12.33;12.33;;;;;;;;5001187;28;51107;-63
2021/09/24 12:08:00;;;;;;;;;12.33;12.00;;;;;;;;5008513;28;51071;-61
2021/09/24 12:10:26;;;;;;;;;13.00;13.00;;;;;;;;4991467;28;51847;-61
2021/09/24 12:13:04;;;;;;;;;16.33;15.00;;;;;;;;4996543;28;51048;-62
2021/09/24 12:15:47;;;;;;;;;14.33;12.67;;;;;;;;5006892;28;51092;-62
2021/09/24 12:18:12;;;;;;;;;12.67;12.67;;;;;;;;4994364;28;51407;-61
2021/09/24 12:20:37;;;;;;;;;14.33;13.67;;;;;;;;5012797;28;51745;-61
2021/09/24 12:23:02;;;;;;;;;14.33;14.33;;;;;;;;5005053;28;51072;-60
2021/09/24 12:25:28;;;;;;;;;20.25;18.50;;;;;;;;4993545;28;51231;-61
2021/09/24 12:28:06;;;;;;;;;19.00;16.33;;;;;;;;4993876;28;51074;-61
2021/09/24 12:30:36;;;;;;;;;14.33;12.67;;;;;;;;5004084;28;51194;-60
2021/09/24 12:33:14;;;;;;;;;18.67;17.33;;;;;;;;4996270;28;50903;-60
2021/09/24 12:35:40;;;;;;;;;15.33;14.33;;;;;;;;4993146;28;50827;-60
2021/09/24 12:38:25;;;;;;;;;17.00;16.00;;;;;;;;4999897;28;50957;-62
2021/09/24 12:41:08;;;;;;;;;20.33;16.00;;;;;;;;4992943;28;53142;-60
2021/09/24 12:43:34;;;;;;;;;16.33;14.00;;;;;;;;4993236;28;50947;-60
2021/09/24 12:45:59;;;;;;;;;15.33;15.33;;;;;;;;4993256;28;51121;-61
2021/09/24 12:48:24;;;;;;;;;14.33;13.67;;;;;;;;4993479;28;51392;-60
2021/09/24 12:50:50;;;;;;;;;13.67;13.00;;;;;;;;4992485;28;51056;-60
2021/09/24 12:53:19;;;;;;;;;22.00;21.00;;;;;;;;4993040;28;50899;-61
2021/09/24 12:55:45;;;;;;;;;16.00;14.67;;;;;;;;4993053;28;51063;-61
2021/09/24 12:58:11;;;;;;;;;15.67;15.00;;;;;;;;4992156;28;50987;-61
2021/09/24 13:00:36;;;;;;;;;15.00;13.33;;;;;;;;5003986;28;51840;-61
2021/09/24 13:03:03;;;;;;;;;13.33;12.00;;;;;;;;4994594;28;50968;-62
2021/09/24 13:05:29;;;;;;;;;12.67;12.67;;;;;;;;4992666;28;51066;-61
2021/09/24 13:07:54;;;;;;;;;13.33;13.33;;;;;;;;4992758;28;50821;-61
2021/09/24 13:10:20;;;;;;;;;12.33;12.33;;;;;;;;4992066;28;52407;-61
2021/09/24 13:12:45;;;;;;;;;16.00;15.67;;;;;;;;4995620;28;50906;-60
2021/09/24 13:15:11;;;;;;;;;10.67;10.33;;;;;;;;5010444;28;51198;-61
2021/09/24 13:17:37;;;;;;;;;12.33;11.33;;;;;;;;5000607;28;51126;-61
2021/09/24 13:20:04;;;;;;;;;11.33;11.00;;;;;;;;4992312;28;51768;-61
2021/09/24 13:22:29;;;;;;;;;13.00;12.00;;;;;;;;4995482;28;51105;-60
2021/09/24 13:24:54;;;;;;;;;14.00;14.00;;;;;;;;4992542;28;50996;-60
2021/09/24 13:27:19;;;;;;;;;16.00;14.00;;;;;;;;4992312;28;51390;-61
2021/09/24 13:29:46;;;;;;;;;15.00;12.67;;;;;;;;4995006;28;51223;-61
2021/09/24 13:32:14;;;;;;;;;15.33;15.00;;;;;;;;4992660;28;50970;-60
2021/09/24 13:34:39;;;;;;;;;13.67;13.00;;;;;;;;4992484;28;50994;-61
2021/09/24 13:37:04;;;;;;;;;15.67;14.33;;;;;;;;4994282;28;51185;-60
2021/09/24 13:39:30;;;;;;;;;13.33;13.00;;;;;;;;4998271;28;51851;-60
2021/09/24 13:41:55;;;;;;;;;13.33;13.33;;;;;;;;4992412;28;51085;-60
2021/09/24 13:44:22;;;;;;;;;14.00;13.67;;;;;;;;4992406;28;50927;-61
2021/09/24 13:46:47;;;;;;;;;11.67;10.67;;;;;;;;4992633;28;50906;-61
2021/09/24 13:49:12;;;;;;;;;13.67;13.33;;;;;;;;4992125;28;51107;-61
2021/09/24 13:51:38;;;;;;;;;12.00;12.00;;;;;;;;4998099;28;51061;-62
2021/09/24 13:54:03;;;;;;;;;14.00;13.00;;;;;;;;5012075;28;50836;-61
2021/09/24 13:56:28;;;;;;;;;11.00;11.00;;;;;;;;5011856;28;51228;-61
2021/09/24 13:58:54;;;;;;;;;13.67;13.33;;;;;;;;5012023;28;51776;-61
2021/09/24 14:01:19;;;;;;;;;14.00;14.00;;;;;;;;5011378;28;50975;-61
2021/09/24 14:03:44;;;;;;;;;15.00;14.00;;;;;;;;5012093;28;50938;-61
2021/09/24 14:06:09;;;;;;;;;13.00;12.33;;;;;;;;5011969;28;50939;-62
2021/09/24 14:08:36;;;;;;;;;17.33;15.67;;;;;;;;5011467;28;51134;-61
2021/09/24 14:11:01;;;;;;;;;13.00;13.00;;;;;;;;5011687;28;51174;-60
2021/09/24 14:13:26;;;;;;;;;10.67;10.67;;;;;;;;5003432;28;51128;-61
2021/09/24 14:15:54;;;;;;;;;12.67;12.00;;;;;;;;5000331;28;50945;-62
2021/09/24 14:18:19;;;;;;;;;13.00;12.67;;;;;;;;4997792;28;51247;-60
2021/09/24 14:20:44;;;;;;;;;12.00;11.67;;;;;;;;5003219;28;51078;-61